createdAt,value
2019-02-07T13:38:28.950Z,36.26
2019-02-07T13:40:36.965Z,36.36
2019-02-07T13:42:50.899Z,36.43
2019-02-07T13:44:58.939Z,36.90
2019-02-07T13:47:10.049Z,36.60
2019-02-07T13:49:31.668Z,36.43
2019-02-07T13:51:52.293Z,36.63
2019-02-07T13:54:32.579Z,36.97
2019-02-07T13:59:37.160Z,36.80
2019-02-07T14:02:03.309Z,36.98
2019-02-07T14:04:17.562Z,36.50
2019-02-07T14:06:31.634Z,36.87
2019-02-07T14:08:49.525Z,37.45
2019-02-07T14:11:16.652Z,37.29
2019-02-07T14:13:21.822Z,37.23
2019-02-07T14:15:46.347Z,37.55
2019-02-07T14:18:10.584Z,38.00
2019-02-07T14:20:35.012Z,38.09
2019-02-07T14:22:55.103Z,37.81
2019-02-07T14:25:13.064Z,37.63
2019-02-07T14:27:26.341Z,38.22
2019-02-07T14:29:43.461Z,37.79
2019-02-07T14:31:51.490Z,38.11
2019-02-07T14:33:59.505Z,37.88
2019-02-07T14:36:27.647Z,38.54
2019-02-07T14:38:47.708Z,38.84
2019-02-07T14:41:13.824Z,39.11
2019-02-07T14:43:21.881Z,39.45
2019-02-07T14:45:36.011Z,40.02
2019-02-07T14:47:43.115Z,40.52
2019-02-07T14:49:50.693Z,40.76
2019-02-07T14:51:57.135Z,41.38
2019-02-07T14:54:03.591Z,41.49
2019-02-07T14:56:15.908Z,41.84
2019-02-07T14:58:27.566Z,42.21
2019-02-07T15:00:35.593Z,42.28
2019-02-07T15:03:15.196Z,42.24
2019-02-07T15:05:58.018Z,42.96
2019-02-07T15:10:32.785Z,44.58
2019-02-07T15:15:43.100Z,44.26
2019-02-07T15:20:47.256Z,46.06
2019-02-07T15:27:07.117Z,44.76
2019-02-07T15:29:20.469Z,45.20
2019-02-07T15:31:32.621Z,44.86
2019-02-07T15:33:43.555Z,45.33
2019-02-07T15:36:00.291Z,45.28
2019-02-07T15:38:31.470Z,45.66
2019-02-07T15:40:47.061Z,46.14
2019-02-07T15:42:56.231Z,47.41
2019-02-07T15:48:28.492Z,47.50
2019-02-07T15:50:42.388Z,48.29
2019-02-07T15:52:52.946Z,48.53
2019-02-07T15:55:17.004Z,48.71
2019-02-07T15:57:38.912Z,49.16
2019-02-07T16:00:42.965Z,46.95
2019-02-07T16:02:42.140Z,49.38
2019-02-07T16:29:31.023Z,47.17
2019-02-07T16:32:16.024Z,50.56
2019-02-07T16:34:30.902Z,46.89
2019-02-07T16:37:26.414Z,53.28
2019-02-07T16:38:35.570Z,53.74
2019-02-07T16:39:43.113Z,54.04
2019-02-07T16:40:50.617Z,54.17
2019-02-07T16:42:05.870Z,54.10
2019-02-07T16:43:06.567Z,54.07
2019-02-07T16:44:15.270Z,54.23
2019-02-07T16:45:24.984Z,54.15
2019-02-07T16:46:31.329Z,54.44
2019-02-07T16:47:38.229Z,54.41
2019-02-07T16:51:36.614Z,54.61
2019-02-07T16:54:43.909Z,54.78
2019-02-07T16:57:54.698Z,54.51
2019-02-07T17:01:08.443Z,54.91
2019-02-07T17:04:15.754Z,54.71
2019-02-07T17:07:22.982Z,54.95
2019-02-07T17:10:37.062Z,54.90
2019-02-07T17:13:44.181Z,54.89
2019-02-07T17:16:51.335Z,54.45
2019-02-07T17:19:58.480Z,54.54
2019-02-07T17:23:06.318Z,54.74
2019-02-07T17:26:13.457Z,54.80
2019-02-07T17:29:20.615Z,54.62
2019-02-07T17:32:27.843Z,54.69
2019-02-07T17:35:35.014Z,54.71
2019-02-07T17:38:42.149Z,54.26
2019-02-07T17:41:50.870Z,54.46
2019-02-07T17:44:58.365Z,54.45
2019-02-07T17:48:05.530Z,54.08
2019-02-07T17:51:22.589Z,54.25
2019-02-07T17:54:31.797Z,54.59
2019-02-07T17:57:43.343Z,54.40
2019-02-07T18:00:59.479Z,54.34
2019-02-07T18:04:07.893Z,54.19
2019-02-07T18:07:15.091Z,54.18
2019-02-07T18:10:22.226Z,54.29
2019-02-07T18:13:29.391Z,54.66
2019-02-07T18:20:21.306Z,54.63
2019-02-07T18:23:28.439Z,55.16
2019-02-07T18:26:35.600Z,55.22
2019-02-07T18:29:42.738Z,55.41
2019-02-07T18:32:51.918Z,55.57
2019-02-07T18:35:59.042Z,55.57
2019-02-07T18:39:08.779Z,55.82
2019-02-07T18:42:17.306Z,55.61
2019-02-07T18:45:24.333Z,56.16
2019-02-07T18:48:31.480Z,56.21
2019-02-07T18:51:45.305Z,56.56
2019-02-07T18:54:58.760Z,56.76
2019-02-07T18:58:15.638Z,56.86
2019-02-07T19:01:22.768Z,56.87
2019-02-07T19:04:29.942Z,57.31
2019-02-07T19:07:37.175Z,57.37
2019-02-07T19:10:45.222Z,57.64
2019-02-07T19:13:52.894Z,60.70
2019-02-07T19:17:00.073Z,58.02
2019-02-07T19:27:33.357Z,58.10
2019-02-07T19:30:41.877Z,58.15
2019-02-07T19:34:00.027Z,58.69
2019-02-07T19:40:35.838Z,59.53
2019-02-07T19:43:45.445Z,59.42
2019-02-07T19:46:51.969Z,59.44
2019-02-07T19:50:24.524Z,59.73
2019-02-07T19:53:32.037Z,59.43
2019-02-07T19:56:39.237Z,59.72
2019-02-07T19:59:47.110Z,59.50
2019-02-07T20:02:54.042Z,59.22
2019-02-07T20:06:01.258Z,59.79
2019-02-07T20:09:13.624Z,59.56
2019-02-07T20:12:21.525Z,59.73
2019-02-07T20:15:40.241Z,59.74
2019-02-07T20:34:16.557Z,59.83
2019-02-07T20:38:10.556Z,60.06
2019-02-07T20:40:24.000Z,59.72
2019-02-07T20:45:33.205Z,60.01
2019-02-07T20:47:42.754Z,60.27
2019-02-07T20:52:33.568Z,60.14
2019-02-07T20:54:45.717Z,60.32
2019-02-07T20:57:15.004Z,60.47
2019-02-07T20:59:27.478Z,60.45
2019-02-07T21:01:38.589Z,60.48
2019-02-07T21:06:06.102Z,60.35
2019-02-07T21:08:16.358Z,60.26
2019-02-07T21:10:57.884Z,60.19
2019-02-07T21:13:06.005Z,60.73
2019-02-07T21:15:20.325Z,60.94
2019-02-07T21:22:55.837Z,61.02
2019-02-07T21:27:38.731Z,60.20
2019-02-07T21:29:45.190Z,60.63
2019-02-07T21:31:51.769Z,60.58
2019-02-07T21:33:58.258Z,60.96
2019-02-07T21:36:04.791Z,60.68
2019-02-07T21:38:12.723Z,60.81
2019-02-07T21:40:23.628Z,61.09
2019-02-07T21:42:30.159Z,61.51
2019-02-07T21:44:36.608Z,61.19
2019-02-07T21:46:43.097Z,61.65
2019-02-07T21:48:50.896Z,61.81
2019-02-07T21:51:01.287Z,61.79
2019-02-07T21:53:10.170Z,61.75
2019-02-07T21:55:25.447Z,61.78
2019-02-07T21:57:32.058Z,62.00
2019-02-07T21:59:40.509Z,61.84
2019-02-07T22:01:47.082Z,61.89
2019-02-07T22:03:53.560Z,62.03
2019-02-07T22:06:01.600Z,61.96
2019-02-07T22:08:09.062Z,62.14
2019-02-07T22:10:18.509Z,61.85
2019-02-07T22:12:25.840Z,62.08
2019-02-07T22:14:32.319Z,61.66
2019-02-07T22:16:38.904Z,61.68
2019-02-07T22:19:05.462Z,62.04
2019-02-07T22:21:11.908Z,61.97
2019-02-07T22:23:18.153Z,61.86
2019-02-07T22:25:24.655Z,61.88
2019-02-07T22:27:30.988Z,61.65
2019-02-07T22:29:37.307Z,61.54
2019-02-07T22:31:43.529Z,61.35
2019-02-07T22:33:49.850Z,61.71
2019-02-07T22:35:56.138Z,61.95
2019-02-07T22:38:02.374Z,61.94
2019-02-07T22:40:19.140Z,62.04
2019-02-07T22:42:25.295Z,61.96
2019-02-07T22:44:31.517Z,61.86
2019-02-07T22:46:37.777Z,61.60
2019-02-07T22:48:43.933Z,61.38
2019-02-07T22:50:50.599Z,61.37
2019-02-07T22:52:57.421Z,61.32
2019-02-07T22:55:04.278Z,61.42
2019-02-07T22:57:10.437Z,61.65
2019-02-07T22:59:16.701Z,61.76
2019-02-07T23:01:23.431Z,61.70
2019-02-07T23:03:30.251Z,61.78
2019-02-07T23:05:36.415Z,61.65
2019-02-07T23:07:42.633Z,61.89
2019-02-07T23:09:48.864Z,61.77
2019-02-07T23:11:55.110Z,62.15
2019-02-07T23:14:02.235Z,62.56
2019-02-07T23:16:10.062Z,62.26
2019-02-07T23:18:16.301Z,62.47
2019-02-07T23:20:23.072Z,62.13
2019-02-07T23:22:29.291Z,62.16
2019-02-07T23:24:35.463Z,62.29
2019-02-07T23:26:41.692Z,62.09
2019-02-07T23:28:48.169Z,62.22
2019-02-07T23:30:54.481Z,61.99
2019-02-07T23:33:00.800Z,62.21
2019-02-07T23:35:10.079Z,62.43
2019-02-07T23:37:16.349Z,62.59
2019-02-07T23:39:22.509Z,62.59
2019-02-07T23:41:28.969Z,62.51
2019-02-07T23:43:35.419Z,62.54
2019-02-07T23:45:41.861Z,62.50
2019-02-07T23:47:48.170Z,62.64
2019-02-07T23:49:54.433Z,62.68
2019-02-07T23:52:00.799Z,63.11
2019-02-07T23:54:07.606Z,63.41
2019-02-07T23:56:13.917Z,63.32
2019-02-07T23:58:20.149Z,63.39
